• Join FlightAware (Why Join?)
  • Login
  • US Flag 
05:12AM EDT


 

Airport Tracker/Info


-or-


 

Live Flight TrackerFlight Track Log ✈ N5605P ✈ 28-Jul-2014 ✈ KROA - KAPF

Flight Track Log - Related Links

Times and Time Zones

All times are in EDT time to prevent confusion due to time zone crossing. See the N5605P flight status page for this flight to view local times or setup timezone preferences in your user account.

Time Position Orientation Groundspeed Altitude Reporting Facility
EDT Latitude Longitude Course Direction KTS MPH feet Rate Location/Type
11:21AM 37.2594 -80.0125 180° South 102 117 2,900  Level Washington Center
11:25AM 37.1483 -80.0269 185° South 112 129 4,500 420 Climbing Washington Center
11:28AM 37.0183 -80.0428 185° South 119 137 6,300 60 Climbing Washington Center
12:03PM 35.7347 -80.1144 186° South 128 147 7,900  Climbing Atlanta Center
12:04PM 35.7871 -80.1394 186° South  Level FlightAware Approximate
12:05PM 35.7510 -80.1441 186° South  Level FlightAware Approximate
12:05PM 35.6806 -80.1119 178° South 135 155 7,900  Level Atlanta Center
12:06PM 35.7150 -80.1488 186° South  Level FlightAware Approximate
12:06PM 35.6450 -80.1108 179° South 130 150 7,900  Level Atlanta Center
12:07PM 35.6790 -80.1535 186° South  Level FlightAware Approximate
12:07PM 35.6117 -80.1100 179° South 121 139 8,000  Level Atlanta Center
12:08PM 35.6430 -80.1582 186° South  Level FlightAware Approximate
12:08PM 35.5719 -80.1119 182° South 122 140 8,000  Level Atlanta Center
12:09PM 35.6070 -80.1629 186° South  Level FlightAware Approximate
12:09PM 35.5386 -80.1083 175° South 128 147 8,100  Level Atlanta Center
12:10PM 35.5011 -80.1103 182° South 134 154 8,000 -60 Descending Atlanta Center
12:11PM 35.4572 -80.1072 177° South 141 162 8,000  Level Atlanta Center
12:12PM 35.4239 -80.1139 189° South 123 142 8,000  Level Atlanta Center
12:13PM 35.3844 -80.1208 188° South 119 137 8,000  Level Atlanta Center
12:14PM 35.3556 -80.1300 195° South 121 139 8,000  Level Atlanta Center
12:15PM 35.3244 -80.1339 186° South 122 140 8,000  Level Atlanta Center
12:16PM 35.2956 -80.1431 195° South 127 146 8,100  Climbing Atlanta Center
12:17PM 35.2561 -80.1500 188° South 120 138 8,000 -60 Descending Atlanta Center
12:18PM 35.2228 -80.1567 189° South 122 140 8,000  Level Atlanta Center
12:19PM 35.1939 -80.1631 190° South 123 142 8,000 -60 Level Atlanta Center
12:20PM 35.1608 -80.1697 189° South 122 140 7,900  Descending Atlanta Center
12:21PM 35.1256 -80.1789 192° South 121 139 8,000  Climbing Atlanta Center
12:22PM 35.0944 -80.1853 190° South 122 140 7,900  Descending Atlanta Center
12:23PM 35.0592 -80.1894 186° South 120 138 8,000  Climbing Atlanta Center
12:24PM 35.0261 -80.2011 196° South 119 137 8,000  Level Atlanta Center
12:25PM 34.9950 -80.2053 186° South 121 139 8,000  Level Atlanta Center
12:27PM 34.9355 -80.2162 189° South  Level FlightAware Approximate
12:34PM 34.6880 -80.2603 188° South  Level FlightAware Approximate
12:35PM 34.6526 -80.2662 188° South  Level FlightAware Approximate
12:36PM 34.6185 -80.2793 198° South  Level FlightAware Approximate
12:37PM 34.5846 -80.2928 198° South  Level FlightAware Approximate
12:38PM 34.5512 -80.3082 204° Southwest  Level FlightAware Approximate
12:39PM 34.5183 -80.3257 204° Southwest  Level FlightAware Approximate
12:40PM 34.4855 -80.3432 204° Southwest  Level FlightAware Approximate
12:41PM 34.4526 -80.3606 204° Southwest  Level FlightAware Approximate
12:42PM 34.4197 -80.3780 204° Southwest  Level FlightAware Approximate
12:43PM 34.3868 -80.3955 204° Southwest  Level FlightAware Approximate
12:44PM 34.3539 -80.4129 204° Southwest  Level FlightAware Approximate
12:45PM 34.3210 -80.4303 204° Southwest  Level FlightAware Approximate
12:46PM 34.2881 -80.4477 204° Southwest  Level FlightAware Approximate
12:47PM 34.2552 -80.4650 204° Southwest  Level FlightAware Approximate
12:48PM 34.2223 -80.4824 204° Southwest  Level FlightAware Approximate
12:49PM 34.1893 -80.4997 204° Southwest  Level FlightAware Approximate
12:50PM 34.1564 -80.5171 204° Southwest  Level FlightAware Approximate
12:51PM 34.1235 -80.5344 204° Southwest  Level FlightAware Approximate
12:52PM 34.0906 -80.5517 204° Southwest  Level FlightAware Approximate
12:53PM 34.0577 -80.5690 204° Southwest  Level FlightAware Approximate
12:54PM 34.0247 -80.5862 204° Southwest  Level FlightAware Approximate
12:55PM 33.9918 -80.6035 203° Southwest  Level FlightAware Approximate
12:56PM 33.9584 -80.6189 193° South  Level FlightAware Approximate
12:57PM 33.9234 -80.6284 193° South  Level FlightAware Approximate
12:58PM 33.8883 -80.6378 193° South  Level FlightAware Approximate
12:59PM 33.8533 -80.6473 193° South  Level FlightAware Approximate
01:00PM 33.8183 -80.6568 193° South  Level FlightAware Approximate
01:01PM 33.7832 -80.6662 193° South  Level FlightAware Approximate
01:02PM 33.7482 -80.6756 193° South  Level FlightAware Approximate
01:03PM 33.7132 -80.6851 193° South  Level FlightAware Approximate
01:04PM 33.6781 -80.6945 193° South  Level FlightAware Approximate
01:05PM 33.6431 -80.7039 193° South  Level FlightAware Approximate
01:06PM 33.6081 -80.7133 193° South  Level FlightAware Approximate
01:07PM 33.5730 -80.7227 193° South  Level FlightAware Approximate
01:08PM 33.5380 -80.7321 193° South  Level FlightAware Approximate
01:09PM 33.5032 -80.7426 194° South  Level FlightAware Approximate
01:10PM 33.4684 -80.7532 194° South  Level FlightAware Approximate
01:11PM 33.4336 -80.7638 194° South  Level FlightAware Approximate
01:12PM 33.3988 -80.7744 194° South  Level FlightAware Approximate
01:13PM 33.3640 -80.7850 194° South  Level FlightAware Approximate
01:14PM 33.3292 -80.7956 194° South  Level FlightAware Approximate
01:15PM 33.2944 -80.8062 194° South  Level FlightAware Approximate
01:16PM 33.2596 -80.8167 194° South  Level FlightAware Approximate
01:17PM 33.2248 -80.8273 194° South  Level FlightAware Approximate
01:18PM 33.1900 -80.8379 194° South  Level FlightAware Approximate
01:19PM 33.1552 -80.8484 194° South  Level FlightAware Approximate
01:20PM 33.1202 -80.8580 193° South  Level FlightAware Approximate
01:21PM 33.0852 -80.8673 193° South  Level FlightAware Approximate
01:22PM 33.0502 -80.8767 193° South  Level FlightAware Approximate
01:23PM 33.0151 -80.8860 193° South  Level FlightAware Approximate
01:24PM 32.9801 -80.8953 193° South  Level FlightAware Approximate
01:25PM 32.9450 -80.9047 193° South  Level FlightAware Approximate
01:26PM 32.9100 -80.9140 193° South  Level FlightAware Approximate
01:27PM 32.8750 -80.9232 192° South  Level FlightAware Approximate
01:28PM 32.8399 -80.9324 192° South  Level FlightAware Approximate
01:29PM 32.8048 -80.9416 192° South  Level FlightAware Approximate
01:30PM 32.7698 -80.9507 192° South  Level FlightAware Approximate
01:31PM 32.7347 -80.9599 192° South  Level FlightAware Approximate
01:32PM 32.6996 -80.9690 192° South  Level FlightAware Approximate
01:33PM 32.6646 -80.9782 192° South  Level FlightAware Approximate
01:34PM 32.6295 -80.9873 192° South  Level FlightAware Approximate
01:35PM 32.5944 -80.9965 192° South  Level FlightAware Approximate
01:36PM 32.5594 -81.0056 192° South  Level FlightAware Approximate
01:37PM 32.5243 -81.0147 192° South  Level FlightAware Approximate
01:38PM 32.4893 -81.0243 193° South  Level FlightAware Approximate
01:39PM 32.4544 -81.0341 193° South  Level FlightAware Approximate
01:40PM 32.4194 -81.0438 193° South  Level FlightAware Approximate
01:41PM 32.3845 -81.0536 193° South  Level FlightAware Approximate
01:42PM 32.3495 -81.0633 193° South  Level FlightAware Approximate
01:43PM 32.3146 -81.0731 193° South  Level FlightAware Approximate
01:44PM 32.2797 -81.0828 193° South  Level FlightAware Approximate
01:45PM 32.2447 -81.0925 193° South  Level FlightAware Approximate
01:46PM 32.2098 -81.1022 193° South  Level FlightAware Approximate
01:47PM 32.1748 -81.1119 193° South  Level FlightAware Approximate
01:48PM 32.1399 -81.1216 193° South  Level FlightAware Approximate
01:49PM 32.1049 -81.1313 193° South  Level FlightAware Approximate
01:50PM 32.0700 -81.1410 193° South  Level FlightAware Approximate
01:51PM 32.0350 -81.1506 193° South  Level FlightAware Approximate
01:52PM 32.0001 -81.1603 193° South  Level FlightAware Approximate
01:53PM 31.9651 -81.1700 193° South  Level FlightAware Approximate
01:54PM 31.9301 -81.1796 193° South  Level FlightAware Approximate
01:55PM 31.8949 -81.1877 190° South  Level FlightAware Approximate
01:56PM 31.8595 -81.1948 190° South  Level FlightAware Approximate
01:57PM 31.8244 -81.2030 196° South  Level FlightAware Approximate
01:58PM 31.7898 -81.2145 196° South  Level FlightAware Approximate
01:59PM 31.7553 -81.2260 196° South  Level FlightAware Approximate
02:00PM 31.7207 -81.2375 196° South  Level FlightAware Approximate
02:01PM 31.6862 -81.2490 196° South  Level FlightAware Approximate
02:02PM 31.6514 -81.2592 194° South  Level FlightAware Approximate
02:03PM 31.6165 -81.2691 194° South  Level FlightAware Approximate
02:03PM 31.7525 -81.0650 194° South 131 151 8,000  Level Jacksonville Center
02:04PM 31.5816 -81.2791 194° South  Level FlightAware Approximate
02:04PM 31.7128 -81.0706 187° South 131 151 8,100  Level Jacksonville Center
02:05PM 31.5467 -81.2891 194° South  Level FlightAware Approximate
02:05PM 31.6794 -81.0764 188° South 131 151 8,000  Level Jacksonville Center
02:06PM 31.5118 -81.2990 194° South  Level FlightAware Approximate
02:06PM 31.6419 -81.0794 184° South 126 145 8,000  Level Jacksonville Center
02:07PM 31.4769 -81.3090 194° South  Level FlightAware Approximate
02:07PM 31.6086 -81.0850 188° South 126 145 8,000  Level Jacksonville Center
02:08PM 31.4421 -81.3190 194° South  Level FlightAware Approximate
02:08PM 31.5692 -81.0881 184° South 131 151 8,000  Level Jacksonville Center
02:09PM 31.4072 -81.3292 194° South  Level FlightAware Approximate
02:09PM 31.5336 -81.0914 185° South 137 158 8,100  Level Jacksonville Center
02:10PM 31.4961 -81.0919 181° South 137 158 8,100  Level Jacksonville Center
02:11PM 31.4647 -81.0903 177° South 137 158 8,100 -60 Level Jacksonville Center
02:12PM 31.4272 -81.0933 184° South 142 163 8,000 -60 Descending Jacksonville Center
02:13PM 31.3875 -81.0917 178° South 142 163 8,000  Level Jacksonville Center
02:14PM 31.3500 -81.0925 181° South 142 163 8,000  Level Jacksonville Center
02:15PM 31.3103 -81.0931 181° South 142 163 8,000  Level Jacksonville Center
02:16PM 31.2769 -81.0939 181° South 136 157 8,000  Level Jacksonville Center
02:17PM 31.2414 -81.0944 181° South 136 157 8,100  Climbing Jacksonville Center
02:18PM 31.2039 -81.0928 178° South 136 157 8,100 -60 Level Jacksonville Center
02:19PM 31.1683 -81.0936 181° South 136 157 8,000  Descending Jacksonville Center
02:20PM 31.1308 -81.0942 181° South 142 163 8,100  Climbing Jacksonville Center
02:21PM 31.0994 -81.0947 181° South 137 158 8,000 -60 Descending Jacksonville Center
02:22PM 31.0619 -81.0978 184° South 138 159 8,000  Level Jacksonville Center
02:23PM 31.0264 -81.0986 181° South 138 159 8,000  Level Jacksonville Center
02:24PM 30.9908 -81.0992 181° South 138 159 8,000  Level Jacksonville Center
02:25PM 30.9556 -81.1000 181° South 138 159 8,000  Level Jacksonville Center
02:26PM 30.9200 -81.0981 177° South 138 159 8,000  Level Jacksonville Center
02:27PM 30.8886 -81.0989 181° South 128 147 8,000  Level Jacksonville Center
02:27PM 30.8844 -81.0989 180° South 138 159 8,000  Level Jacksonville Center
02:28PM 30.8531 -81.0969 177° South 126 145 8,000  Level Jacksonville Center
02:28PM 30.8489 -81.0994 207° Southwest 138 159 8,000  Level Jacksonville Center
02:29PM 30.8175 -81.1000 181° South 130 150 8,000  Level Jacksonville Center
02:29PM 30.8133 -81.1003 183° South 138 159 8,000  Level Jacksonville Center
02:30PM 30.7800 -81.1008 181° South 130 150 8,000  Level Jacksonville Center
02:30PM 30.7781 -81.0983 132° Southeast 138 159 8,000 -120 Level Jacksonville Center
02:31PM 30.7467 -81.1014 185° South 127 146 7,900  Descending Jacksonville Center
02:31PM 30.7403 -81.1017 182° South 138 159 8,000 60 Climbing Jacksonville Center
02:32PM 30.7069 -81.1022 181° South 131 151 8,000  Level Jacksonville Center
02:32PM 30.7069 -81.0997 90° East 138 159 8,000  Level Jacksonville Center
02:33PM 30.6694 -81.1006 181° South 138 159 8,000  Level Jacksonville Center
02:34PM 30.6361 -81.1011 181° South 126 145 8,100 60 Climbing Jacksonville Center
02:34PM 30.6339 -81.1011 180° South 138 159 8,100  Level Jacksonville Center
02:35PM 30.5964 -81.0994 178° South 131 151 8,100  Level Jacksonville Center
02:35PM 30.5964 -81.1019 270° West 138 159 8,100 -120 Level Jacksonville Center
02:36PM 30.5608 -81.1025 181° South 130 150 8,000 -60 Descending Jacksonville Center
02:37PM 30.5233 -81.1033 181° South 130 150 8,000  Level Jacksonville Center
02:38PM 30.4878 -81.1014 177° South 128 147 8,000  Level Jacksonville Center
02:39PM 30.4522 -81.1022 181° South 131 151 8,000 -60 Level Jacksonville Center
02:40PM 30.4167 -81.1028 181° South 127 146 7,900  Descending Jacksonville Center
02:41PM 30.3792 -81.1058 184° South 127 146 8,000  Climbing Jacksonville Center
02:42PM 30.3439 -81.1067 181° South 130 150 8,000 -60 Level Jacksonville Center
02:43PM 30.3083 -81.1047 177° South 127 146 7,900 -60 Descending Jacksonville Center
02:44PM 30.2728 -81.1031 178° South 128 147 7,900  Level Jacksonville Center
02:45PM 30.2353 -81.1039 181° South 128 147 7,900  Level Jacksonville Center
02:46PM 30.1978 -81.1069 184° South 129 148 7,900  Level Jacksonville Center
02:47PM 30.1622 -81.1075 181° South 129 148 7,900  Level Jacksonville Center
02:48PM 30.1247 -81.1083 181° South 129 148 8,000  Climbing Jacksonville Center
02:49PM 30.0869 -81.1067 178° South 132 152 8,000  Level Jacksonville Center
02:50PM 30.0514 -81.1072 181° South 132 152 8,100 60 Climbing Jacksonville Center
02:51PM 30.0139 -81.1078 181° South 131 151 8,200  Climbing Jacksonville Center
02:52PM 29.9783 -81.1086 181° South 130 150 8,200 -120 Level Jacksonville Center
02:53PM 29.9408 -81.1117 184° South 135 155 8,000 -120 Descending Jacksonville Center
02:54PM 29.9283 -81.1119 181° South 136 157 8,100 60 Climbing Jacksonville Center
02:55PM 29.8928 -81.1125 181° South 138 159 8,100  Level Jacksonville Center
02:56PM 29.8531 -81.1086 175° South 131 151 8,100  Level Jacksonville Center
02:57PM 29.8178 -81.1092 181° South 129 148 8,100  Level Jacksonville Center
02:58PM 29.7844 -81.1122 185° South 129 148 8,100  Level Jacksonville Center
02:59PM 29.7447 -81.1128 181° South 132 152 8,200  Climbing Jacksonville Center
03:00PM 29.7092 -81.1111 178° South 130 150 8,200 -60 Level Jacksonville Center
03:01PM 29.6653 -81.1119 181° South 133 153 8,100 -60 Descending Jacksonville Center
03:02PM 29.6300 -81.1125 181° South 130 150 8,100  Level Jacksonville Center
03:03PM 29.5922 -81.1133 181° South 131 151 8,100  Level Jacksonville Center
03:04PM 29.5611 -81.1139 181° South 127 146 8,100  Level Jacksonville Center
03:05PM 29.5258 -81.1289 200° South 120 138 8,100  Level Jacksonville Center
03:06PM 29.4925 -81.1436 201° Southwest 124 143 8,100  Level Jacksonville Center
03:07PM 29.4594 -81.1586 202° Southwest 122 140 8,100  Level Jacksonville Center
03:08PM 29.4281 -81.1686 196° South 122 140 8,100  Level Jacksonville Center
03:09PM 29.3950 -81.1836 202° Southwest 127 146 8,100  Level Jacksonville Center
03:10PM 29.3681 -81.1961 202° Southwest 128 147 8,100  Level Jacksonville Center
03:11PM 29.3286 -81.2108 198° South 126 145 8,100 -60 Level Jacksonville Center
03:12PM 29.2972 -81.2211 196° South 127 146 8,000 -60 Descending Jacksonville Center
03:13PM 29.2536 -81.2383 199° South 126 145 8,000  Level Jacksonville Center
03:14PM 29.2225 -81.2531 202° Southwest 122 140 8,100  Climbing Jacksonville Center
03:16PM 29.1667 -81.2833 205° Southwest 128 147 8,000 -60 Descending Orlando TRACON
03:17PM 29.1333 -81.2833 180° South 124 143 8,000  Level Orlando TRACON
03:18PM 29.1000 -81.3000 204° Southwest 122 140 8,000  Level Orlando TRACON
03:19PM 29.0667 -81.3167 204° Southwest 122 140 8,000  Level Orlando TRACON
03:20PM 29.0333 -81.3333 204° Southwest 124 143 8,000  Level Orlando TRACON
03:21PM 29.0000 -81.3500 204° Southwest 123 142 8,000  Level Orlando TRACON
03:22PM 28.9667 -81.3500 180° South 128 147 8,000  Level Orlando TRACON
03:23PM 28.9333 -81.3833 221° Southwest 116 133 8,000  Level Orlando TRACON
03:24PM 28.9167 -81.4000 221° Southwest 117 135 8,000  Level Orlando TRACON
03:25PM 28.9000 -81.4333 240° Southwest 119 137 8,000  Level Orlando TRACON
03:26PM 28.8667 -81.4667 221° Southwest 118 136 8,100  Climbing Orlando TRACON
03:27PM 28.8500 -81.5000 240° Southwest 120 138 8,000  Descending Orlando TRACON
03:28PM 28.8333 -81.5167 221° Southwest 119 137 8,100  Climbing Orlando TRACON
03:29PM 28.8000 -81.5500 221° Southwest 124 143 8,100  Level Orlando TRACON
03:30PM 28.7667 -81.5667 204° Southwest 123 142 8,100  Level Orlando TRACON
03:31PM 28.7333 -81.5833 204° Southwest 121 139 8,200  Climbing Orlando TRACON
03:32PM 28.7000 -81.5833 180° South 134 154 8,100 -120 Descending Orlando TRACON
03:33PM 28.6667 -81.5833 180° South 130 150 8,000  Descending Orlando TRACON
03:34PM 28.6333 -81.6000 204° Southwest 128 147 8,100  Climbing Orlando TRACON
03:35PM 28.6000 -81.6000 180° South 130 150 8,100  Level Orlando TRACON
03:36PM 28.5667 -81.6000 180° South 127 146 8,100  Level Orlando TRACON
03:37PM 28.5167 -81.6000 180° South 131 151 8,100  Level Orlando TRACON
03:38PM 28.4833 -81.6000 180° South 130 150 8,100  Level Orlando TRACON
03:39PM 28.4500 -81.6000 180° South 132 152 8,100  Level Orlando TRACON
03:40PM 28.4333 -81.6333 240° Southwest 118 136 8,100  Level Orlando TRACON
03:41PM 28.4000 -81.6667 221° Southwest 121 139 8,100  Level Orlando TRACON
03:42PM 28.3833 -81.7000 240° Southwest 127 146 8,100  Level Orlando TRACON
03:43PM 28.3500 -81.7167 204° Southwest 125 144 8,100  Level Orlando TRACON
03:44PM 28.3167 -81.7167 180° South 146 168 8,100 -60 Level Orlando TRACON
03:45PM 28.2833 -81.6833 139° Southeast 142 163 8,000  Descending Orlando TRACON
03:46PM 28.2500 -81.6667 156° South 139 160 8,100  Climbing Orlando TRACON
03:47PM 28.2000 -81.6667 180° South 125 144 8,000 -60 Descending Orlando TRACON
03:48PM 28.1667 -81.6667 180° South 131 151 8,000  Level Orlando TRACON
03:50PM 28.1222 -81.6658 179° South 127 146 8,100  Climbing Miami Center
03:51PM 28.0850 -81.6653 179° South 130 150 8,100 -60 Level Miami Center
03:52PM 28.0469 -81.6622 176° South 135 155 8,000 -60 Descending Miami Center
03:53PM 28.0103 -81.6639 182° South 134 154 8,000  Level Miami Center
03:54PM 27.9733 -81.6622 178° South 133 153 8,100  Climbing Miami Center
03:55PM 27.9289 -81.6608 178° South 133 153 8,100 -60 Level Miami Center
03:56PM 27.8908 -81.6597 179° South 133 153 8,000  Descending Miami Center
03:57PM 27.8539 -81.6614 182° South 134 154 8,100  Climbing Miami Center
03:58PM 27.8167 -81.6628 182° South 134 154 8,100 -60 Level Miami Center
03:59PM 27.7792 -81.6700 190° South 135 155 8,000 -60 Descending Miami Center
04:00PM 27.7425 -81.6714 182° South 133 153 8,000  Level Miami Center
04:01PM 27.7044 -81.6694 177° South 134 154 8,000  Level Miami Center
04:02PM 27.6589 -81.6669 177° South 136 157 8,000  Level Miami Center
04:03PM 27.6214 -81.6650 177° South 135 155 8,100  Climbing Miami Center
04:04PM 27.5833 -81.6642 179° South 135 155 8,100 -180 Level Miami Center
04:05PM 27.5419 -81.6619 177° South 145 167 7,800 -240 Descending Miami Center
04:06PM 27.5014 -81.6603 178° South 145 167 7,700 -60 Descending Miami Center
04:07PM 27.4628 -81.6575 176° South 141 162 7,700  Level Miami Center
04:08PM 27.4253 -81.6561 178° South 138 159 7,800  Climbing Miami Center
04:09PM 27.3808 -81.6542 178° South 137 158 7,800  Level Miami Center
04:10PM 27.3422 -81.6525 178° South 137 158 7,800  Level Miami Center
04:11PM 27.3039 -81.6522 180° South 137 158 7,800 -120 Level Miami Center
04:12PM 27.2650 -81.6539 182° South 137 158 7,600 -300 Descending Miami Center
04:13PM 27.2242 -81.6544 181° South 143 165 7,300 -300 Descending Miami Center
04:14PM 27.1825 -81.6522 177° South 147 169 7,000 -240 Descending Miami Center
04:15PM 27.1428 -81.6525 180° South 147 169 6,900 -60 Descending Miami Center
04:16PM 27.0961 -81.6503 178° South 142 163 6,900  Level Miami Center
04:17PM 27.0581 -81.6433 171° South 138 159 7,000  Climbing Miami Center
04:18PM 27.0200 -81.6400 176° South 129 148 7,000 -60 Level Miami Center
04:19PM 26.9817 -81.6469 189° South 137 158 6,900  Descending Miami Center
04:20PM 26.9458 -81.6528 188° South 134 154 7,000 60 Climbing Miami Center
04:21PM 26.9064 -81.6592 188° South 134 154 7,100  Climbing Miami Center
04:22PM 26.8692 -81.6650 188° South 134 154 7,000 -120 Descending Miami Center
04:24PM 26.8294 -81.6714 188° South 135 155 6,900 -300 Descending Miami Center
04:25PM 26.7881 -81.6761 186° South 145 167 6,400 -420 Descending Miami Center
04:26PM 26.7439 -81.6853 191° South 148 170 6,100 -300 Descending Miami Center
04:27PM 26.7042 -81.6936 191° South 148 170 5,900 -240 Descending Miami Center
04:28PM 26.6611 -81.7008 189° South 147 169 5,700 -300 Descending Miami Center
04:29PM 26.6200 -81.7067 187° South 148 170 5,400 -240 Descending Miami Center
04:30PM 26.5814 -81.7114 186° South 142 163 5,300 -180 Descending Miami Center
04:31PM 26.5386 -81.7167 186° South 142 163 5,100 -120 Descending Miami Center
04:32PM 26.5006 -81.7206 185° South 135 155 5,100 -300 Level Miami Center
04:33PM 26.4575 -81.7289 190° South 144 166 4,600 -660 Descending Miami Center
04:34PM 26.4164 -81.7383 192° South 147 169 3,800 -840 Descending Miami Center
04:35PM 26.3722 -81.7481 191° South 148 170 2,900 -840 Descending Miami Center
04:36PM 26.3311 -81.7564 190° South 149 171 2,100 -540 Descending Miami Center
04:37PM 26.2931 -81.7583 183° South 144 166 1,800 -360 Descending Miami Center
04:38PM 26.2553 -81.7578 179° South 132 152 1,400 -420 Descending Miami Center
04:39PM 26.2228 -81.7564 178° South 122 140 1,000 -300 Descending Miami Center
04:40PM 26.1931 -81.7558 179° South 104 120 800 -300 Descending Miami Center
04:41PM 26.1733 -81.7558 180° South 77 89 400 -360 Descending Miami Center
04:42PM 26.1561 -81.7689 214° Southwest 71 82 100 -300 Descending Miami Center
04:44PM 26.1500 -81.7667 190° South  Level FlightAware Approximate